Time;durP1;ratioP1;P1;durP2;ratioP2;P2;SDS_P1;SDS_P2;PMS_P1;PMS_P2;Temp;Humidity;BMP_temperature;BMP_pressure;BME280_temperature;BME280_humidity;BME280_pressure;Samples;Min_cycle;Max_cycle;Signal;HPM_P1;HPM_P2
2023/03/16 00:00:12;;;;;;;0.20;0.20;;;;;;;0.53;87.82;94923.02;106601;1276;24831;-68
2023/03/16 00:03:00;;;;;;;0.30;0.30;;;;;;;0.49;87.85;94919.19;106641;1276;22568;-67
2023/03/16 00:05:29;;;;;;;0.80;0.30;;;;;;;0.48;88.05;94921.94;106535;1276;25309;-68
2023/03/16 00:07:57;;;;;;;0.40;0.20;;;;;;;0.44;88.22;94927.27;106551;1276;22516;-67
2023/03/16 00:10:26;;;;;;;0.20;0.20;;;;;;;0.40;88.00;94922.55;106578;1276;22528;-67
2023/03/16 00:12:55;;;;;;;0.40;0.20;;;;;;;0.38;88.18;94925.66;106684;1276;25341;-67
2023/03/16 00:15:24;;;;;;;0.30;0.20;;;;;;;0.39;87.99;94931.73;106625;1276;25393;-67
2023/03/16 00:17:52;;;;;;;0.50;0.20;;;;;;;0.40;88.23;94928.80;106572;1276;25475;-67
2023/03/16 00:20:21;;;;;;;0.20;0.20;;;;;;;0.42;88.03;94933.14;106557;1276;24316;-67
2023/03/16 00:22:50;;;;;;;0.40;0.30;;;;;;;0.45;88.00;94932.30;106657;1276;22485;-67
2023/03/16 00:25:18;;;;;;;0.20;0.10;;;;;;;0.44;87.82;94933.85;106608;1276;22655;-67
2023/03/16 00:27:46;;;;;;;0.20;0.20;;;;;;;0.42;87.97;94935.56;106532;1276;22768;-67
2023/03/16 00:30:15;;;;;;;0.10;0.10;;;;;;;0.42;88.03;94936.25;106590;1276;22538;-67
2023/03/16 00:32:43;;;;;;;0.30;0.10;;;;;;;0.39;87.67;94943.66;106591;1276;22522;-68
2023/03/16 00:35:11;;;;;;;0.20;0.20;;;;;;;0.35;87.81;94945.00;106592;1276;22531;-67
2023/03/16 00:37:41;;;;;;;0.20;0.10;;;;;;;0.38;87.82;94943.30;106608;1276;24377;-67
2023/03/16 00:40:13;;;;;;;0.10;0.10;;;;;;;0.39;87.93;94948.86;106655;1276;22522;-67
2023/03/16 00:42:42;;;;;;;0.20;0.10;;;;;;;0.44;88.11;94952.88;106602;1276;22653;-67
2023/03/16 00:45:11;;;;;;;0.10;0.10;;;;;;;0.46;87.91;94953.08;106602;1276;22510;-67
2023/03/16 00:47:41;;;;;;;0.30;0.20;;;;;;;0.47;87.68;94951.70;106534;1276;24486;-68
2023/03/16 00:50:10;;;;;;;0.60;0.30;;;;;;;0.50;87.94;94957.96;106546;1264;22523;-67
2023/03/16 00:52:41;;;;;;;0.50;0.20;;;;;;;0.54;87.88;94956.77;106634;1276;25342;-67
2023/03/16 00:55:09;;;;;;;0.30;0.20;;;;;;;0.59;87.80;94953.37;106627;1276;22517;-67
2023/03/16 00:57:37;;;;;;;0.50;0.10;;;;;;;0.59;87.48;94954.76;106540;1276;26667;-67
2023/03/16 01:00:11;;;;;;;0.30;0.20;;;;;;;0.60;87.50;94953.38;106698;1276;24202;-67
2023/03/16 01:02:40;;;;;;;0.10;0.10;;;;;;;0.56;87.21;94945.90;106523;1276;25346;-68
2023/03/16 01:05:11;;;;;;;0.10;0.10;;;;;;;0.52;86.96;94948.98;106636;1276;22503;-67
2023/03/16 01:07:41;;;;;;;0.10;0.10;;;;;;;0.53;87.27;94950.38;106551;1276;22547;-67
2023/03/16 01:10:10;;;;;;;0.20;0.20;;;;;;;0.51;86.97;94953.64;106553;1276;22631;-67
2023/03/16 01:12:39;;;;;;;0.40;0.10;;;;;;;0.46;86.78;94952.20;106607;1276;24262;-67
2023/03/16 01:15:09;;;;;;;0.10;0.10;;;;;;;0.43;87.11;94951.65;106563;1276;22523;-67
2023/03/16 01:17:37;;;;;;;0.10;0.10;;;;;;;0.43;87.43;94955.30;106611;1276;25233;-67
2023/03/16 01:20:10;;;;;;;0.10;0.10;;;;;;;0.41;87.42;94954.92;106592;1276;22528;-68
2023/03/16 01:22:39;;;;;;;;;;;;;;;0.39;87.36;94960.09;106622;1276;25348;-68
2023/03/16 01:25:10;;;;;;;0.30;0.10;;;;;;;0.33;87.34;94964.70;106672;1276;24063;-67
2023/03/16 01:27:41;;;;;;;0.10;0.10;;;;;;;0.27;87.53;94968.45;106634;1276;22799;-67
2023/03/16 01:30:11;;;;;;;0.20;0.20;;;;;;;0.22;87.63;94973.92;106632;1276;22517;-67
2023/03/16 01:32:40;;;;;;;0.10;0.10;;;;;;;0.18;87.76;94980.80;106621;1276;22640;-67
2023/03/16 01:35:11;;;;;;;0.10;0.10;;;;;;;0.14;87.86;94981.10;106608;1276;23096;-68
2023/03/16 01:37:39;;;;;;;0.40;0.40;;;;;;;0.10;87.83;94979.50;106559;1276;22533;-68
2023/03/16 01:40:14;;;;;;;0.30;0.10;;;;;;;0.08;87.66;94978.11;106543;1276;22640;-68
2023/03/16 01:42:48;;;;;;;0.20;0.20;;;;;;;0.08;87.78;94978.09;106652;1276;22578;-67
2023/03/16 01:45:55;;;;;;;0.30;0.20;;;;;;;0.09;87.74;94977.75;106597;1276;24336;-67
2023/03/16 01:48:26;;;;;;;0.40;0.10;;;;;;;0.04;87.70;94981.85;106643;1276;24047;-67
2023/03/16 01:50:55;;;;;;;0.10;0.10;;;;;;;-0.01;87.88;94988.20;106611;1276;22643;-67
2023/03/16 01:53:25;;;;;;;0.10;0.10;;;;;;;0.00;88.03;94992.87;106610;1276;25539;-68
2023/03/16 01:55:54;;;;;;;0.20;0.10;;;;;;;0.01;88.06;94991.84;106593;1276;25236;-67
2023/03/16 01:58:22;;;;;;;0.10;0.10;;;;;;;0.02;88.21;94995.15;106634;1276;25465;-67
2023/03/16 02:00:51;;;;;;;0.10;0.10;;;;;;;0.05;88.18;94993.45;106581;1276;25383;-67
2023/03/16 02:03:21;;;;;;;0.10;0.10;;;;;;;0.09;88.10;95000.23;106647;1276;24326;-67
2023/03/16 02:06:05;;;;;;;0.10;0.10;;;;;;;0.10;87.72;95000.61;106541;1276;22665;-68
2023/03/16 02:08:36;;;;;;;0.10;0.10;;;;;;;0.06;87.39;95004.35;106589;1276;22516;-67
2023/03/16 02:11:07;;;;;;;0.00;0.00;;;;;;;0.03;87.67;95006.04;106627;1276;24193;-67
2023/03/16 02:13:42;;;;;;;0.00;0.00;;;;;;;0.07;87.87;95003.50;106563;1276;25310;-67
2023/03/16 02:16:13;;;;;;;0.00;0.00;;;;;;;0.11;87.76;95006.30;106634;1276;22650;-67
2023/03/16 02:18:41;;;;;;;0.20;0.10;;;;;;;0.12;87.41;95006.16;106623;1265;25502;-67
2023/03/16 02:21:12;;;;;;;0.10;0.10;;;;;;;0.09;87.15;95009.05;106607;1276;24317;-67
2023/03/16 02:23:43;;;;;;;0.00;0.00;;;;;;;0.09;87.30;95008.89;106566;1276;24132;-67
2023/03/16 02:26:49;;;;;;;0.10;0.10;;;;;;;0.07;87.45;95009.55;106624;1272;25491;-67
2023/03/16 02:29:40;;;;;;;0.10;0.10;;;;;;;0.06;87.36;95013.69;106585;1276;22639;-67
2023/03/16 02:32:11;;;;;;;0.10;0.10;;;;;;;0.06;87.26;95020.79;106541;1276;22951;-67
2023/03/16 02:34:41;;;;;;;0.10;0.10;;;;;;;0.02;87.35;95020.21;106618;1276;25259;-68
2023/03/16 02:37:10;;;;;;;0.20;0.10;;;;;;;0.01;87.19;95022.96;106598;1276;22533;-67
2023/03/16 02:39:42;;;;;;;0.20;0.20;;;;;;;0.01;87.27;95025.39;106630;1276;22516;-67
2023/03/16 02:42:17;;;;;;;0.30;0.20;;;;;;;-0.00;87.21;95028.65;106577;1276;25462;-67
2023/03/16 02:44:51;;;;;;;0.00;0.00;;;;;;;-0.00;87.17;95028.14;106606;1276;24249;-67
2023/03/16 02:47:27;;;;;;;0.20;0.20;;;;;;;-0.03;87.12;95033.63;106575;1276;22566;-67
2023/03/16 02:49:55;;;;;;;0.20;0.10;;;;;;;-0.04;87.05;95031.89;106540;1276;24056;-67
2023/03/16 02:52:24;;;;;;;0.00;0.00;;;;;;;-0.09;86.88;95038.74;106608;1276;22601;-67
2023/03/16 02:54:52;;;;;;;0.10;0.00;;;;;;;-0.15;86.94;95041.41;106639;1276;22518;-67
2023/03/16 02:57:21;;;;;;;0.00;0.00;;;;;;;-0.20;87.29;95051.91;106555;1276;25259;-67
2023/03/16 02:59:49;;;;;;;0.10;0.10;;;;;;;-0.22;87.35;95051.88;106585;1276;22520;-66
2023/03/16 03:02:17;;;;;;;0.20;0.10;;;;;;;-0.24;87.73;95049.42;106556;1276;22636;-67
2023/03/16 03:04:46;;;;;;;0.70;0.10;;;;;;;-0.21;87.94;95053.95;106636;1276;23912;-67
2023/03/16 03:07:15;;;;;;;0.30;0.10;;;;;;;-0.18;87.74;95055.55;106538;1276;25380;-67
2023/03/16 03:09:58;;;;;;;0.40;0.30;;;;;;;-0.18;87.76;95056.44;106555;1276;22611;-67
2023/03/16 03:12:27;;;;;;;0.30;0.10;;;;;;;-0.17;87.78;95059.21;106554;1276;22861;-67
2023/03/16 03:14:56;;;;;;;0.30;0.20;;;;;;;-0.15;87.80;95060.27;106557;1276;22650;-67
2023/03/16 03:17:28;;;;;;;0.20;0.10;;;;;;;-0.12;87.68;95059.10;106580;1276;22673;-67
2023/03/16 03:19:59;;;;;;;0.50;0.20;;;;;;;-0.15;87.35;95066.84;106606;1276;25471;-67
2023/03/16 03:22:27;;;;;;;0.10;0.10;;;;;;;-0.16;87.42;95065.10;106575;1276;25377;-67
2023/03/16 03:24:55;;;;;;;0.10;0.10;;;;;;;-0.16;87.80;95068.72;106574;1276;25535;-67
2023/03/16 03:27:23;;;;;;;0.10;0.10;;;;;;;-0.14;87.71;95070.48;106599;1276;24400;-67
2023/03/16 03:29:53;;;;;;;0.20;0.10;;;;;;;-0.13;87.60;95071.89;106623;1276;25327;-67
2023/03/16 03:32:21;;;;;;;0.40;0.20;;;;;;;-0.14;87.54;95071.00;106598;1276;23871;-67
2023/03/16 03:34:50;;;;;;;0.50;0.50;;;;;;;-0.15;87.58;95073.07;106608;1276;25468;-67
2023/03/16 03:37:18;;;;;;;0.40;0.20;;;;;;;-0.16;87.34;95072.02;106568;1276;25313;-67
2023/03/16 03:39:47;;;;;;;0.30;0.20;;;;;;;-0.17;87.45;95073.89;106633;1276;22520;-67
2023/03/16 03:42:15;;;;;;;0.20;0.10;;;;;;;-0.16;87.46;95077.19;106660;1276;22782;-67
2023/03/16 03:44:43;;;;;;;1.70;0.50;;;;;;;-0.23;87.31;95084.87;106594;1276;22631;-67
2023/03/16 03:47:12;;;;;;;0.90;0.50;;;;;;;-0.25;87.51;95084.68;106536;1276;23905;-67
2023/03/16 03:49:40;;;;;;;1.80;0.70;;;;;;;-0.28;87.42;95090.33;106608;1276;22528;-67
2023/03/16 03:52:08;;;;;;;1.80;0.70;;;;;;;-0.29;87.79;95092.21;106554;1276;22538;-67
2023/03/16 03:54:37;;;;;;;1.20;0.50;;;;;;;-0.33;87.90;95097.69;106630;1276;24205;-67
2023/03/16 03:57:09;;;;;;;2.10;0.90;;;;;;;-0.35;87.88;95103.52;106621;1276;25502;-67
2023/03/16 03:59:42;;;;;;;1.60;0.40;;;;;;;-0.37;87.99;95102.29;106607;1276;24196;-67
2023/03/16 04:02:34;;;;;;;0.50;0.30;;;;;;;-0.43;87.98;95102.73;106565;1276;24093;-67
2023/03/16 04:05:06;;;;;;;0.30;0.10;;;;;;;-0.45;88.11;95106.84;106618;1276;22513;-67
2023/03/16 04:07:34;;;;;;;0.80;0.40;;;;;;;-0.45;88.07;95107.02;106606;1276;24330;-67
2023/03/16 04:10:06;;;;;;;0.80;0.30;;;;;;;-0.41;88.31;95112.77;106653;1276;25214;-67
2023/03/16 04:12:37;;;;;;;0.50;0.40;;;;;;;-0.39;88.34;95111.93;106567;1276;25219;-67
2023/03/16 04:15:07;;;;;;;1.90;1.10;;;;;;;-0.39;87.93;95116.60;106637;1276;25304;-67
2023/03/16 04:17:44;;;;;;;0.40;0.30;;;;;;;-0.39;88.05;95118.66;106607;1276;25383;-68
2023/03/16 04:20:18;;;;;;;4.30;2.30;;;;;;;-0.38;88.12;95124.56;106619;1276;22528;-67
2023/03/16 04:22:46;;;;;;;0.30;0.30;;;;;;;-0.40;88.29;95123.50;106623;1276;25368;-65
2023/03/16 04:25:16;;;;;;;0.20;0.10;;;;;;;-0.39;88.19;95129.73;106669;1276;22518;-65
2023/03/16 04:27:45;;;;;;;3.40;3.10;;;;;;;-0.37;88.15;95132.02;106647;1276;22799;-65
2023/03/16 04:30:14;;;;;;;0.20;0.20;;;;;;;-0.35;88.17;95131.54;106633;1276;24346;-65
2023/03/16 04:32:46;;;;;;;0.50;0.50;;;;;;;-0.30;88.01;95136.63;106546;1276;22633;-64
2023/03/16 04:35:17;;;;;;;0.20;0.20;;;;;;;-0.30;87.70;95137.66;106638;1276;22520;-65
2023/03/16 04:37:52;;;;;;;0.40;0.20;;;;;;;-0.28;87.77;95142.86;106589;1276;22650;-65
2023/03/16 04:40:24;;;;;;;0.40;0.10;;;;;;;-0.28;87.71;95147.90;106594;1276;25398;-66
2023/03/16 04:43:01;;;;;;;0.00;0.00;;;;;;;-0.26;87.66;95152.41;106602;1276;24367;-65
2023/03/16 04:45:31;;;;;;;4.10;3.70;;;;;;;-0.22;87.74;95155.41;106666;1276;22660;-65
2023/03/16 04:47:59;;;;;;;0.90;0.40;;;;;;;-0.23;87.49;95160.92;106599;1276;22551;-65
2023/03/16 04:50:27;;;;;;;0.40;0.20;;;;;;;-0.24;87.34;95163.16;106560;1276;25370;-65
2023/03/16 04:52:56;;;;;;;0.50;0.40;;;;;;;-0.23;87.43;95169.41;106568;1276;22646;-65
2023/03/16 04:55:25;;;;;;;0.50;0.30;;;;;;;-0.22;87.47;95168.91;106583;1276;24219;-65
2023/03/16 04:57:53;;;;;;;0.80;0.20;;;;;;;-0.25;87.19;95168.15;106670;1276;26634;-65
2023/03/16 05:00:22;;;;;;;0.90;0.30;;;;;;;-0.28;87.28;95170.02;106608;1276;22934;-65
2023/03/16 05:02:57;;;;;;;0.20;0.10;;;;;;;-0.30;87.38;95177.41;106590;1276;22568;-65
2023/03/16 05:05:25;;;;;;;0.60;0.30;;;;;;;-0.30;87.38;95179.30;106602;1276;24250;-65
2023/03/16 05:07:54;;;;;;;0.20;0.20;;;;;;;-0.34;87.46;95183.56;106580;1276;25180;-65
2023/03/16 05:10:22;;;;;;;0.40;0.20;;;;;;;-0.35;87.61;95185.45;106539;1276;25465;-66
2023/03/16 05:12:52;;;;;;;0.30;0.30;;;;;;;-0.38;87.65;95185.39;106617;1276;22538;-66
2023/03/16 05:15:20;;;;;;;0.30;0.20;;;;;;;-0.39;87.75;95191.09;106658;1276;22530;-65
2023/03/16 05:18:00;;;;;;;0.70;0.30;;;;;;;-0.37;88.06;95195.95;106592;1276;24251;-66
2023/03/16 05:20:30;;;;;;;0.10;0.10;;;;;;;-0.36;88.02;95197.53;106448;1276;24253;-66
2023/03/16 05:22:59;;;;;;;0.50;0.30;;;;;;;-0.33;87.88;95202.59;106583;1276;24211;-65
2023/03/16 05:25:34;;;;;;;0.60;0.50;;;;;;;-0.31;87.93;95202.97;106587;1276;24256;-66
2023/03/16 05:28:04;;;;;;;1.00;0.60;;;;;;;-0.30;87.96;95203.84;106598;1276;25484;-66
2023/03/16 05:30:46;;;;;;;0.90;0.80;;;;;;;-0.27;88.07;95209.09;106626;1276;25470;-66
2023/03/16 05:33:18;;;;;;;0.80;0.50;;;;;;;-0.23;88.00;95205.52;106600;1276;22753;-66
2023/03/16 05:35:50;;;;;;;1.00;0.70;;;;;;;-0.20;87.75;95209.89;106616;1276;24321;-66
2023/03/16 05:38:19;;;;;;;1.20;0.70;;;;;;;-0.19;87.68;95203.17;106611;1276;22664;-65
2023/03/16 05:40:51;;;;;;;1.20;0.60;;;;;;;-0.14;87.88;95216.22;106628;1276;24377;-66
2023/03/16 05:43:46;;;;;;;1.80;0.90;;;;;;;-0.14;87.55;95219.67;106375;1276;22650;-66
2023/03/16 05:46:15;;;;;;;0.80;0.70;;;;;;;-0.13;87.54;95226.61;106636;1276;25645;-66
2023/03/16 05:48:46;;;;;;;1.00;0.80;;;;;;;-0.12;87.78;95231.80;106554;1276;22809;-66
2023/03/16 05:51:15;;;;;;;0.80;0.70;;;;;;;-0.12;87.75;95235.42;106645;1276;25291;-65
2023/03/16 05:53:45;;;;;;;1.50;1.10;;;;;;;-0.11;87.85;95233.36;106656;1276;24062;-65
2023/03/16 05:56:25;;;;;;;1.20;0.70;;;;;;;-0.10;88.17;95244.30;106554;1276;23667;-66
2023/03/16 05:58:55;;;;;;;1.20;0.90;;;;;;;-0.08;88.11;95244.48;106535;1276;25272;-66
2023/03/16 06:01:24;;;;;;;1.70;0.90;;;;;;;-0.09;87.90;95249.31;106625;1276;24390;-66
2023/03/16 06:03:53;;;;;;;1.40;0.70;;;;;;;-0.16;88.25;95257.84;106622;1276;22544;-66
2023/03/16 06:06:24;;;;;;;1.80;1.30;;;;;;;-0.21;88.46;95262.26;106625;1276;22517;-65
2023/03/16 06:08:58;;;;;;;3.70;2.70;;;;;;;-0.18;88.72;95264.54;106522;1276;25308;-68
2023/03/16 06:11:27;;;;;;;1.10;0.80;;;;;;;-0.19;88.48;95268.50;106536;1276;22517;-67
2023/03/16 06:13:56;;;;;;;1.20;0.90;;;;;;;-0.18;88.47;95269.56;106412;1276;26630;-68
2023/03/16 06:16:25;;;;;;;0.70;0.60;;;;;;;-0.17;88.54;95275.11;106706;1276;22529;-67
2023/03/16 06:18:55;;;;;;;2.80;1.70;;;;;;;-0.17;88.42;95283.06;106548;1276;22523;-67
2023/03/16 06:21:27;;;;;;;1.20;0.90;;;;;;;-0.15;88.64;95280.86;106567;1276;22939;-66
2023/03/16 06:23:56;;;;;;;1.70;0.80;;;;;;;-0.13;88.44;95283.48;106582;1276;22542;-67
2023/03/16 06:26:24;;;;;;;2.40;1.30;;;;;;;-0.11;88.47;95291.63;106379;1276;22527;-67
2023/03/16 06:28:53;;;;;;;2.10;1.10;;;;;;;-0.02;88.48;95294.55;106628;1276;22663;-69
2023/03/16 06:31:21;;;;;;;1.10;0.80;;;;;;;0.04;88.11;95295.70;106462;1276;22971;-67
2023/03/16 06:33:50;;;;;;;1.70;0.90;;;;;;;0.09;87.99;95295.09;106668;1276;24376;-69
2023/03/16 06:36:19;;;;;;;2.80;1.30;;;;;;;0.17;88.01;95299.38;106414;1276;22543;-67
2023/03/16 06:38:50;;;;;;;2.30;0.80;;;;;;;0.25;87.86;95296.05;106414;1276;22543;-73
2023/03/16 06:41:38;;;;;;;2.00;1.10;;;;;;;0.33;87.24;95297.38;106395;1276;24206;-69
2023/03/16 06:44:06;;;;;;;1.30;0.90;;;;;;;0.37;87.04;95298.66;106520;1276;22650;-65
2023/03/16 06:46:37;;;;;;;1.50;1.00;;;;;;;0.42;86.92;95310.67;106596;1263;24373;-66
2023/03/16 06:49:07;;;;;;;3.20;1.80;;;;;;;0.45;86.70;95308.64;106614;1276;24044;-67
2023/03/16 06:51:35;;;;;;;2.30;1.30;;;;;;;0.53;86.86;95314.82;106341;1276;25234;-68
2023/03/16 06:54:03;;;;;;;1.80;0.90;;;;;;;0.59;86.85;95323.40;106428;1276;24272;-69
2023/03/16 06:56:32;;;;;;;0.60;0.60;;;;;;;0.69;86.65;95321.46;106510;1276;25204;-70
2023/03/16 06:59:01;;;;;;;1.40;1.00;;;;;;;0.74;85.94;95325.70;106571;1264;23719;-66
2023/03/16 07:01:30;;;;;;;2.00;1.10;;;;;;;0.79;85.95;95330.45;106739;1278;22784;-66
2023/03/16 07:03:59;;;;;;;1.20;1.10;;;;;;;0.87;85.84;95334.20;106414;1277;22532;-66
2023/03/16 07:06:30;;;;;;;2.00;1.10;;;;;;;0.92;84.98;95335.64;106948;1277;22817;-68
2023/03/16 07:09:00;;;;;;;2.20;1.10;;;;;;;0.93;84.52;95342.77;107180;1277;22537;-72
2023/03/16 07:11:31;;;;;;;3.30;1.70;;;;;;;0.88;84.44;95344.07;106481;1277;25399;-67
2023/03/16 07:14:00;;;;;;;4.70;2.00;;;;;;;0.83;84.58;95341.42;106379;1277;22982;-67
2023/03/16 07:16:30;;;;;;;5.30;1.80;;;;;;;0.85;84.75;95350.63;107480;1277;23920;-71
2023/03/16 07:19:00;;;;;;;3.00;1.70;;;;;;;0.90;84.98;95353.81;106516;1264;25322;-67
2023/03/16 07:21:30;;;;;;;2.90;1.70;;;;;;;0.91;84.57;95355.56;106240;1256;22606;-78
2023/03/16 07:24:00;;;;;;;4.20;2.80;;;;;;;0.91;84.04;95359.35;106671;1277;24606;-68
2023/03/16 07:26:31;;;;;;;4.10;3.00;;;;;;;0.93;84.18;95363.20;106562;1277;24253;-68
2023/03/16 07:29:00;;;;;;;5.20;2.70;;;;;;;0.97;84.01;95365.50;106347;1277;22640;-72
2023/03/16 07:31:29;;;;;;;5.90;3.00;;;;;;;1.07;84.27;95368.77;108288;1277;22660;-67
2023/03/16 07:33:59;;;;;;;6.40;3.50;;;;;;;1.07;83.51;95376.23;106369;1276;23869;-69
2023/03/16 07:36:34;;;;;;;2.90;2.20;;;;;;;1.18;83.73;95372.05;106360;1276;22527;-68
2023/03/16 07:39:03;;;;;;;5.10;3.00;;;;;;;1.21;83.39;95375.04;106480;1277;22522;-71
2023/03/16 07:41:33;;;;;;;8.60;4.50;;;;;;;1.29;83.28;95378.43;106338;1277;22544;-70
2023/03/16 07:44:28;;;;;;;5.80;3.90;;;;;;;1.44;83.25;95380.02;106207;1277;25327;-71
2023/03/16 07:46:57;;;;;;;3.40;2.40;;;;;;;1.53;82.60;95383.77;106345;1277;22645;-70
2023/03/16 07:49:26;;;;;;;3.50;2.50;;;;;;;1.52;81.83;95384.29;107789;1277;22516;-67
2023/03/16 07:51:55;;;;;;;2.50;2.30;;;;;;;1.56;82.01;95388.14;106267;1276;24227;-69
2023/03/16 07:54:28;;;;;;;3.70;2.60;;;;;;;1.57;81.53;95391.80;106401;1276;25018;-67
2023/03/16 07:56:56;;;;;;;3.80;2.50;;;;;;;1.56;81.26;95391.44;106359;1276;22647;-71
2023/03/16 07:59:30;;;;;;;4.80;2.80;;;;;;;1.54;81.24;95396.09;106573;1276;25389;-65
2023/03/16 08:01:58;;;;;;;4.00;2.30;;;;;;;1.57;81.08;95395.43;106418;1276;22988;-66
2023/03/16 08:04:27;;;;;;;2.20;1.60;;;;;;;1.63;80.90;95397.41;106276;1276;22643;-68
2023/03/16 08:27:49;;;;;;;3.60;2.60;;;;;;;3.21;74.66;95411.61;103420;1307;557897;-68
2023/03/16 08:30:18;;;;;;;4.50;3.30;;;;;;;2.91;74.41;95419.05;105816;1287;154069;-68
2023/03/16 08:32:53;;;;;;;4.40;3.30;;;;;;;2.76;75.22;95419.61;105732;1287;22529;-79
2023/03/16 08:35:22;;;;;;;5.20;3.40;;;;;;;2.68;75.61;95427.01;106042;1287;25351;-70
2023/03/16 08:37:50;;;;;;;7.20;4.30;;;;;;;2.54;75.67;95432.61;106406;1287;22598;-71
2023/03/16 08:40:21;;;;;;;4.60;2.90;;;;;;;2.33;75.77;95438.30;105939;1287;22737;-72
2023/03/16 08:42:49;;;;;;;3.80;3.10;;;;;;;2.19;76.51;95444.05;106003;1287;25313;-69
2023/03/16 09:34:45;;;;;;;4.20;3.30;;;;;;;2.45;75.29;95495.70;103318;1307;558369;-66
2023/03/16 09:37:15;;;;;;;5.20;3.30;;;;;;;2.44;75.48;95504.91;105845;1287;144337;-67
2023/03/16 09:39:44;;;;;;;4.60;3.10;;;;;;;2.44;75.68;95510.30;106036;1287;22660;-67
2023/03/16 09:42:35;;;;;;;4.50;3.40;;;;;;;2.47;75.78;95510.49;106138;1287;24240;-67
2023/03/16 09:45:28;;;;;;;5.20;4.10;;;;;;;2.49;75.76;95512.77;105750;1287;22530;-68
2023/03/16 09:48:02;;;;;;;4.40;3.50;;;;;;;2.51;75.77;95516.61;105753;1287;24942;-68
2023/03/16 09:50:33;;;;;;;;;;;;;;;2.53;75.57;95516.11;105769;1287;23896;-69
2023/03/16 09:53:27;;;;;;;5.00;3.60;;;;;;;2.53;75.53;95521.49;105789;1287;22711;-68
2023/03/16 09:56:03;;;;;;;5.70;4.40;;;;;;;2.63;75.45;95525.42;105887;1287;24504;-68
2023/03/16 09:58:32;;;;;;;4.60;3.30;;;;;;;2.74;75.56;95523.64;105776;1287;22614;-66
2023/03/16 10:01:34;;;;;;;6.80;4.20;;;;;;;2.71;74.82;95524.98;105776;1287;22523;-67
2023/03/16 10:04:02;;;;;;;7.90;4.90;;;;;;;2.60;74.63;95531.13;105710;1288;22551;-69
2023/03/16 10:06:32;;;;;;;9.50;5.70;;;;;;;2.63;74.86;95529.77;106096;1281;22524;-68
2023/03/16 10:09:25;;;;;;;7.00;4.10;;;;;;;2.62;74.79;95531.33;107341;1281;22520;-69
2023/03/16 10:11:56;;;;;;;;;;;;;;;2.64;74.85;95538.81;106325;1281;22997;-72
2023/03/16 10:14:29;;;;;;;9.70;5.70;;;;;;;2.56;75.25;95538.02;106178;1281;26677;-65
2023/03/16 10:17:05;;;;;;;8.90;5.30;;;;;;;2.53;75.61;95541.64;106280;1281;25214;-67
2023/03/16 10:19:47;;;;;;;9.30;5.70;;;;;;;2.51;75.52;95544.58;106098;1282;22546;-66
2023/03/16 10:22:22;;;;;;;13.50;7.60;;;;;;;2.48;75.65;95546.95;106391;1281;25289;-69
2023/03/16 10:25:15;;;;;;;9.90;6.50;;;;;;;2.45;75.75;95550.41;106087;1281;25382;-67
2023/03/16 10:27:45;;;;;;;7.20;5.10;;;;;;;2.42;76.22;95554.02;105925;1281;22530;-67
2023/03/16 10:30:23;;;;;;;7.40;5.20;;;;;;;2.38;76.18;95554.65;106068;1281;23903;-68
2023/03/16 10:32:52;;;;;;;8.80;5.80;;;;;;;2.40;76.18;95558.84;106733;1281;25406;-66
2023/03/16 10:35:56;;;;;;;7.30;5.70;;;;;;;2.33;76.28;95562.59;106131;1281;25446;-66
2023/03/16 10:38:39;;;;;;;8.80;5.70;;;;;;;2.39;76.76;95564.91;105798;1289;22592;-67
2023/03/16 10:41:17;;;;;;;8.70;5.80;;;;;;;2.41;76.45;95569.11;106081;1282;22534;-69
2023/03/16 10:43:50;;;;;;;17.30;9.90;;;;;;;2.36;76.50;95569.21;106040;1277;22520;-69
2023/03/16 10:46:18;;;;;;;26.70;14.10;;;;;;;2.29;76.70;95571.73;106039;1274;22522;-68
2023/03/16 11:00:45;;;;;;;11.30;9.00;;;;;;;3.26;74.94;95569.80;104376;1304;558046;-66
2023/03/16 11:03:31;;;;;;;8.90;5.60;;;;;;;3.28;74.63;95574.55;106065;1286;241802;-66
2023/03/16 11:06:06;;;;;;;7.40;5.10;;;;;;;3.20;74.83;95572.55;105899;1286;22524;-66
2023/03/16 11:08:40;;;;;;;9.30;5.00;;;;;;;3.10;74.71;95572.30;106866;1286;24463;-65
2023/03/16 11:11:29;;;;;;;7.50;5.00;;;;;;;2.97;74.63;95576.86;106244;1286;22540;-65
2023/03/16 11:14:00;;;;;;;6.20;4.30;;;;;;;2.90;75.01;95575.05;107622;1276;22652;-66
2023/03/16 11:17:01;;;;;;;9.50;5.80;;;;;;;2.80;75.19;95575.80;106354;1286;26713;-66
2023/03/16 11:19:58;;;;;;;6.90;5.10;;;;;;;2.79;75.15;95577.70;106501;1282;22828;-66
2023/03/16 11:22:26;;;;;;;5.80;4.30;;;;;;;2.67;75.23;95574.79;105970;1282;25220;-66
2023/03/16 11:25:08;;;;;;;7.80;5.40;;;;;;;2.59;75.93;95579.73;106173;1282;22533;-66
2023/03/16 11:27:41;;;;;;;8.20;5.10;;;;;;;2.61;75.98;95579.23;106149;1283;22649;-66
2023/03/16 11:30:28;;;;;;;7.70;5.80;;;;;;;2.59;76.19;95580.09;106194;1283;24249;-65
2023/03/16 11:32:59;;;;;;;9.40;5.90;;;;;;;2.52;76.34;95582.44;106120;1283;22537;-66
2023/03/16 11:35:39;;;;;;;8.10;6.10;;;;;;;2.50;76.78;95581.89;106126;1282;22664;-66
2023/03/16 11:38:57;;;;;;;10.70;6.30;;;;;;;2.49;76.66;95586.56;106202;1283;22639;-66
2023/03/16 11:41:55;;;;;;;7.30;5.60;;;;;;;2.39;77.08;95590.08;106187;1282;24380;-66
2023/03/16 11:44:35;;;;;;;9.80;6.10;;;;;;;2.28;77.47;95595.49;105892;1283;24440;-66
2023/03/16 11:47:03;;;;;;;8.80;5.70;;;;;;;2.31;77.61;95599.70;106160;1283;23897;-67
2023/03/16 11:50:02;;;;;;;10.90;7.00;;;;;;;2.31;77.93;95601.78;106157;1283;22635;-66
2023/03/16 11:52:37;;;;;;;9.80;6.90;;;;;;;2.37;77.99;95603.77;106168;1283;22540;-66
2023/03/16 11:55:31;;;;;;;8.50;5.60;;;;;;;2.42;78.04;95607.30;106192;1272;22651;-66
2023/03/16 11:58:37;;;;;;;9.20;5.50;;;;;;;2.55;77.91;95602.95;106177;1282;25342;-66
2023/03/16 12:01:24;;;;;;;8.80;5.90;;;;;;;2.66;77.29;95605.35;106438;1279;22688;-66
2023/03/16 12:04:30;;;;;;;9.90;6.30;;;;;;;2.72;77.33;95603.33;106352;1279;26613;-66
2023/03/16 12:07:20;;;;;;;9.40;6.70;;;;;;;2.91;77.72;95606.85;106439;1279;22521;-66
2023/03/16 12:09:58;;;;;;;10.90;7.80;;;;;;;3.12;76.91;95609.32;106486;1278;22530;-66
2023/03/16 12:12:44;;;;;;;11.40;8.00;;;;;;;3.22;76.07;95609.27;106472;1279;22628;-66
2023/03/16 12:15:26;;;;;;;19.20;12.90;;;;;;;3.31;75.62;95606.58;106443;1278;24234;-66
2023/03/16 12:18:23;;;;;;;11.00;7.00;;;;;;;3.32;75.55;95606.92;106464;1278;22541;-67
2023/03/16 12:21:00;;;;;;;7.50;6.00;;;;;;;3.24;74.95;95612.76;106394;1279;22527;-67
2023/03/16 12:23:47;;;;;;;9.30;5.90;;;;;;;3.18;74.96;95613.05;106412;1279;24235;-67
2023/03/16 12:26:18;;;;;;;9.30;5.90;;;;;;;3.17;74.84;95615.98;106375;1279;22542;-66
2023/03/16 12:28:48;;;;;;;9.10;5.80;;;;;;;3.09;74.72;95619.20;106794;1279;22674;-66
2023/03/16 12:31:21;;;;;;;7.10;5.40;;;;;;;2.94;74.91;95618.53;106359;1279;22529;-66
2023/03/16 12:34:10;;;;;;;;;;;;;;;2.93;75.38;95621.12;106369;1279;25521;-66
2023/03/16 12:36:52;;;;;;;11.80;6.20;;;;;;;3.00;75.91;95623.98;106254;1279;22521;-66
2023/03/16 12:39:39;;;;;;;10.70;6.50;;;;;;;3.09;75.66;95624.07;106367;1279;24243;-66
2023/03/16 12:42:36;;;;;;;10.90;7.00;;;;;;;3.11;75.07;95627.75;106368;1279;24199;-66
2023/03/16 12:45:23;;;;;;;10.00;6.90;;;;;;;3.11;74.74;95624.61;106355;1279;22541;-65
2023/03/16 12:48:16;;;;;;;11.20;7.00;;;;;;;3.09;75.08;95627.73;106602;1275;22536;-66
2023/03/16 12:51:09;;;;;;;9.70;6.40;;;;;;;3.08;75.16;95628.40;106624;1276;22530;-66
2023/03/16 12:53:52;;;;;;;9.70;6.40;;;;;;;3.06;75.37;95633.43;106660;1276;22469;-66
2023/03/16 12:56:48;;;;;;;10.50;6.10;;;;;;;3.11;75.79;95634.00;106614;1276;25296;-66
2023/03/16 12:59:22;;;;;;;10.50;6.00;;;;;;;3.14;75.41;95630.73;106605;1276;22733;-66
2023/03/16 13:01:58;;;;;;;11.30;6.50;;;;;;;3.05;75.26;95634.81;106613;1275;25317;-66
2023/03/16 13:04:33;;;;;;;9.40;5.80;;;;;;;2.93;75.82;95637.98;106635;1276;22521;-66
2023/03/16 13:07:09;;;;;;;12.00;6.40;;;;;;;2.86;76.16;95635.80;106607;1276;22520;-66
2023/03/16 13:09:57;;;;;;;9.40;5.90;;;;;;;2.81;76.21;95638.89;106607;1276;22520;-66
2023/03/16 13:12:37;;;;;;;9.60;5.50;;;;;;;2.78;76.63;95638.85;106651;1276;25474;-66
2023/03/16 13:15:18;;;;;;;8.30;5.60;;;;;;;2.78;76.63;95644.57;106570;1275;24246;-66
2023/03/16 13:17:50;;;;;;;9.90;5.50;;;;;;;2.74;76.74;95647.30;106599;1276;22536;-66
2023/03/16 13:20:31;;;;;;;8.50;5.80;;;;;;;2.88;77.12;95651.11;106614;1276;22533;-66
2023/03/16 13:23:24;;;;;;;7.50;4.60;;;;;;;3.02;76.24;95650.59;106584;1276;22521;-66
2023/03/16 13:26:02;;;;;;;9.50;5.50;;;;;;;3.09;75.62;95658.32;106897;1276;25258;-66